sensor_id;sensor_type;location;lat;lon;timestamp;P1;durP1;ratioP1;P2;durP2;ratioP2
21589;SDS011;10957;50.968;6.828;2023-04-01T00:02:20;3.35;;;3.25;;
21589;SDS011;10957;50.968;6.828;2023-04-01T00:07:22;3.55;;;3.45;;
21589;SDS011;10957;50.968;6.828;2023-04-01T00:12:23;3.30;;;3.20;;
21589;SDS011;10957;50.968;6.828;2023-04-01T00:17:25;3.28;;;3.17;;
21589;SDS011;10957;50.968;6.828;2023-04-01T00:22:27;4.07;;;3.75;;
21589;SDS011;10957;50.968;6.828;2023-04-01T00:27:29;3.40;;;3.30;;
21589;SDS011;10957;50.968;6.828;2023-04-01T00:32:30;3.50;;;3.40;;
21589;SDS011;10957;50.968;6.828;2023-04-01T00:37:34;3.40;;;3.30;;
21589;SDS011;10957;50.968;6.828;2023-04-01T00:42:36;3.60;;;3.50;;
21589;SDS011;10957;50.968;6.828;2023-04-01T00:47:37;3.78;;;3.67;;
21589;SDS011;10957;50.968;6.828;2023-04-01T00:52:38;4.25;;;4.05;;
21589;SDS011;10957;50.968;6.828;2023-04-01T00:57:40;3.58;;;3.47;;
21589;SDS011;10957;50.968;6.828;2023-04-01T01:02:45;3.20;;;3.10;;
21589;SDS011;10957;50.968;6.828;2023-04-01T01:08:01;3.55;;;3.45;;
21589;SDS011;10957;50.968;6.828;2023-04-01T01:13:25;3.22;;;3.13;;
21589;SDS011;10957;50.968;6.828;2023-04-01T01:40:40;3.13;;;3.03;;
21589;SDS011;10957;50.968;6.828;2023-04-01T01:45:46;3.00;;;2.90;;
21589;SDS011;10957;50.968;6.828;2023-04-01T01:50:50;3.20;;;3.10;;
21589;SDS011;10957;50.968;6.828;2023-04-01T01:55:52;3.00;;;2.90;;
21589;SDS011;10957;50.968;6.828;2023-04-01T02:00:55;4.93;;;4.63;;
21589;SDS011;10957;50.968;6.828;2023-04-01T02:06:02;3.00;;;2.90;;
21589;SDS011;10957;50.968;6.828;2023-04-01T02:11:09;2.90;;;2.80;;
21589;SDS011;10957;50.968;6.828;2023-04-01T02:16:34;3.00;;;2.90;;
21589;SDS011;10957;50.968;6.828;2023-04-01T02:21:40;2.85;;;2.75;;
21589;SDS011;10957;50.968;6.828;2023-04-01T02:26:44;2.90;;;2.80;;
21589;SDS011;10957;50.968;6.828;2023-04-01T02:31:50;3.08;;;2.97;;
21589;SDS011;10957;50.968;6.828;2023-04-01T02:36:52;2.80;;;2.70;;
21589;SDS011;10957;50.968;6.828;2023-04-01T02:41:56;2.88;;;2.78;;
21589;SDS011;10957;50.968;6.828;2023-04-01T02:46:57;3.00;;;2.90;;
21589;SDS011;10957;50.968;6.828;2023-04-01T02:51:59;3.15;;;3.05;;
21589;SDS011;10957;50.968;6.828;2023-04-01T02:57:00;2.90;;;2.80;;
21589;SDS011;10957;50.968;6.828;2023-04-01T03:02:02;3.45;;;3.35;;
21589;SDS011;10957;50.968;6.828;2023-04-01T03:07:03;2.90;;;2.80;;
21589;SDS011;10957;50.968;6.828;2023-04-01T03:12:05;2.80;;;2.70;;
21589;SDS011;10957;50.968;6.828;2023-04-01T03:17:15;2.90;;;2.80;;
21589;SDS011;10957;50.968;6.828;2023-04-01T03:22:16;2.88;;;2.78;;
21589;SDS011;10957;50.968;6.828;2023-04-01T03:27:21;2.90;;;2.80;;
21589;SDS011;10957;50.968;6.828;2023-04-01T03:32:23;3.00;;;2.90;;
21589;SDS011;10957;50.968;6.828;2023-04-01T03:37:28;2.80;;;2.70;;
21589;SDS011;10957;50.968;6.828;2023-04-01T03:42:29;2.90;;;2.80;;
21589;SDS011;10957;50.968;6.828;2023-04-01T03:47:32;3.00;;;2.90;;
21589;SDS011;10957;50.968;6.828;2023-04-01T03:52:33;3.10;;;3.00;;
21589;SDS011;10957;50.968;6.828;2023-04-01T03:57:35;2.90;;;2.80;;
21589;SDS011;10957;50.968;6.828;2023-04-01T04:02:47;3.72;;;3.63;;
21589;SDS011;10957;50.968;6.828;2023-04-01T04:07:54;2.90;;;2.80;;
21589;SDS011;10957;50.968;6.828;2023-04-01T04:12:56;3.00;;;2.90;;
21589;SDS011;10957;50.968;6.828;2023-04-01T04:17:59;2.80;;;2.70;;
21589;SDS011;10957;50.968;6.828;2023-04-01T04:23:01;3.00;;;2.90;;
21589;SDS011;10957;50.968;6.828;2023-04-01T04:28:03;3.08;;;2.97;;
21589;SDS011;10957;50.968;6.828;2023-04-01T04:33:04;2.70;;;2.60;;
21589;SDS011;10957;50.968;6.828;2023-04-01T04:38:06;2.70;;;2.60;;
21589;SDS011;10957;50.968;6.828;2023-04-01T04:43:10;2.70;;;2.60;;
21589;SDS011;10957;50.968;6.828;2023-04-01T04:48:13;2.70;;;2.60;;
21589;SDS011;10957;50.968;6.828;2023-04-01T04:53:20;2.80;;;2.70;;
21589;SDS011;10957;50.968;6.828;2023-04-01T04:58:22;2.90;;;2.80;;
21589;SDS011;10957;50.968;6.828;2023-04-01T05:03:24;2.60;;;2.50;;
21589;SDS011;10957;50.968;6.828;2023-04-01T05:08:25;3.10;;;3.00;;
21589;SDS011;10957;50.968;6.828;2023-04-01T05:13:27;2.60;;;2.50;;
21589;SDS011;10957;50.968;6.828;2023-04-01T05:18:29;2.50;;;2.40;;
21589;SDS011;10957;50.968;6.828;2023-04-01T05:23:31;2.70;;;2.60;;
21589;SDS011;10957;50.968;6.828;2023-04-01T05:28:33;7.40;;;3.38;;
21589;SDS011;10957;50.968;6.828;2023-04-01T05:33:35;2.60;;;2.50;;
21589;SDS011;10957;50.968;6.828;2023-04-01T05:38:37;2.47;;;2.38;;
21589;SDS011;10957;50.968;6.828;2023-04-01T05:43:42;2.40;;;2.30;;
21589;SDS011;10957;50.968;6.828;2023-04-01T05:49:18;2.50;;;2.40;;
21589;SDS011;10957;50.968;6.828;2023-04-01T05:54:20;2.55;;;2.45;;
21589;SDS011;10957;50.968;6.828;2023-04-01T05:59:21;2.40;;;2.30;;
21589;SDS011;10957;50.968;6.828;2023-04-01T06:04:23;2.25;;;2.15;;
21589;SDS011;10957;50.968;6.828;2023-04-01T06:09:26;2.22;;;2.13;;
21589;SDS011;10957;50.968;6.828;2023-04-01T06:25:24;2.38;;;2.28;;
21589;SDS011;10957;50.968;6.828;2023-04-01T06:30:47;2.30;;;2.20;;
21589;SDS011;10957;50.968;6.828;2023-04-01T06:41:29;2.38;;;2.28;;
21589;SDS011;10957;50.968;6.828;2023-04-01T06:46:47;2.30;;;2.20;;
21589;SDS011;10957;50.968;6.828;2023-04-01T06:57:51;2.30;;;2.20;;
21589;SDS011;10957;50.968;6.828;2023-04-01T07:02:59;2.30;;;2.20;;
21589;SDS011;10957;50.968;6.828;2023-04-01T07:08:22;2.30;;;2.20;;
21589;SDS011;10957;50.968;6.828;2023-04-01T07:13:29;2.30;;;2.20;;
21589;SDS011;10957;50.968;6.828;2023-04-01T07:19:04;2.40;;;2.30;;
21589;SDS011;10957;50.968;6.828;2023-04-01T07:24:29;2.13;;;2.03;;
21589;SDS011;10957;50.968;6.828;2023-04-01T07:29:40;2.30;;;2.20;;
21589;SDS011;10957;50.968;6.828;2023-04-01T07:39:54;2.30;;;2.20;;
21589;SDS011;10957;50.968;6.828;2023-04-01T07:50:22;2.40;;;2.30;;
21589;SDS011;10957;50.968;6.828;2023-04-01T08:11:34;2.30;;;2.20;;
21589;SDS011;10957;50.968;6.828;2023-04-01T08:17:29;2.20;;;2.10;;
21589;SDS011;10957;50.968;6.828;2023-04-01T08:22:50;2.70;;;2.60;;
21589;SDS011;10957;50.968;6.828;2023-04-01T08:28:09;2.30;;;2.20;;
21589;SDS011;10957;50.968;6.828;2023-04-01T08:33:19;2.20;;;2.10;;
21589;SDS011;10957;50.968;6.828;2023-04-01T08:38:38;2.20;;;2.10;;
21589;SDS011;10957;50.968;6.828;2023-04-01T08:54:09;2.40;;;2.30;;
21589;SDS011;10957;50.968;6.828;2023-04-01T09:16:55;2.70;;;2.60;;
21589;SDS011;10957;50.968;6.828;2023-04-01T09:22:32;2.33;;;2.22;;
21589;SDS011;10957;50.968;6.828;2023-04-01T09:44:23;2.50;;;2.40;;
21589;SDS011;10957;50.968;6.828;2023-04-01T10:17:31;2.70;;;2.60;;
21589;SDS011;10957;50.968;6.828;2023-04-01T11:00:49;2.30;;;2.20;;
21589;SDS011;10957;50.968;6.828;2023-04-01T11:33:04;2.28;;;2.17;;
21589;SDS011;10957;50.968;6.828;2023-04-01T12:11:36;2.30;;;2.20;;
21589;SDS011;10957;50.968;6.828;2023-04-01T12:43:54;2.63;;;2.53;;
21589;SDS011;10957;50.968;6.828;2023-04-01T13:11:02;2.70;;;2.60;;
21589;SDS011;10957;50.968;6.828;2023-04-01T13:16:11;3.08;;;2.97;;
21589;SDS011;10957;50.968;6.828;2023-04-01T13:21:23;2.70;;;2.60;;
21589;SDS011;10957;50.968;6.828;2023-04-01T13:26:59;2.70;;;2.60;;
21589;SDS011;10957;50.968;6.828;2023-04-01T13:32:22;3.17;;;3.08;;
21589;SDS011;10957;50.968;6.828;2023-04-01T13:37:52;3.20;;;2.90;;
21589;SDS011;10957;50.968;6.828;2023-04-01T13:43:19;3.10;;;3.00;;
21589;SDS011;10957;50.968;6.828;2023-04-01T13:53:51;2.63;;;2.53;;
21589;SDS011;10957;50.968;6.828;2023-04-01T14:04:45;2.30;;;2.20;;
21589;SDS011;10957;50.968;6.828;2023-04-01T14:09:59;2.50;;;2.40;;
21589;SDS011;10957;50.968;6.828;2023-04-01T14:15:18;3.00;;;2.90;;
21589;SDS011;10957;50.968;6.828;2023-04-01T14:20:40;2.40;;;2.30;;
21589;SDS011;10957;50.968;6.828;2023-04-01T14:36:41;2.38;;;2.28;;
21589;SDS011;10957;50.968;6.828;2023-04-01T14:42:12;2.40;;;2.30;;
21589;SDS011;10957;50.968;6.828;2023-04-01T14:52:31;2.80;;;2.70;;
21589;SDS011;10957;50.968;6.828;2023-04-01T14:57:36;2.50;;;2.40;;
21589;SDS011;10957;50.968;6.828;2023-04-01T15:08:22;2.60;;;2.50;;
21589;SDS011;10957;50.968;6.828;2023-04-01T15:24:06;2.40;;;2.30;;
21589;SDS011;10957;50.968;6.828;2023-04-01T15:35:06;2.60;;;2.50;;
21589;SDS011;10957;50.968;6.828;2023-04-01T15:51:26;3.28;;;3.08;;
21589;SDS011;10957;50.968;6.828;2023-04-01T16:02:17;2.80;;;2.70;;
21589;SDS011;10957;50.968;6.828;2023-04-01T16:18:48;2.80;;;2.70;;
21589;SDS011;10957;50.968;6.828;2023-04-01T16:24:02;2.88;;;2.78;;
21589;SDS011;10957;50.968;6.828;2023-04-01T16:45:34;2.90;;;2.80;;
21589;SDS011;10957;50.968;6.828;2023-04-01T16:50:58;2.60;;;2.50;;
21589;SDS011;10957;50.968;6.828;2023-04-01T16:56:13;2.50;;;2.40;;
21589;SDS011;10957;50.968;6.828;2023-04-01T17:01:25;2.50;;;2.40;;
21589;SDS011;10957;50.968;6.828;2023-04-01T17:11:41;2.30;;;2.20;;
21589;SDS011;10957;50.968;6.828;2023-04-01T17:16:59;2.50;;;2.40;;
21589;SDS011;10957;50.968;6.828;2023-04-01T17:27:47;2.55;;;2.45;;
21589;SDS011;10957;50.968;6.828;2023-04-01T17:33:03;2.72;;;2.63;;
21589;SDS011;10957;50.968;6.828;2023-04-01T17:49:02;2.50;;;2.40;;
21589;SDS011;10957;50.968;6.828;2023-04-01T17:59:38;2.55;;;2.45;;
21589;SDS011;10957;50.968;6.828;2023-04-01T18:20:58;2.65;;;2.55;;
21589;SDS011;10957;50.968;6.828;2023-04-01T18:26:22;3.17;;;3.08;;
21589;SDS011;10957;50.968;6.828;2023-04-01T18:31:38;2.33;;;2.22;;
21589;SDS011;10957;50.968;6.828;2023-04-01T18:36:59;2.90;;;2.70;;
21589;SDS011;10957;50.968;6.828;2023-04-01T18:52:58;2.70;;;2.60;;
21589;SDS011;10957;50.968;6.828;2023-04-01T19:03:34;2.70;;;2.60;;
21589;SDS011;10957;50.968;6.828;2023-04-01T19:08:44;2.70;;;2.60;;
21589;SDS011;10957;50.968;6.828;2023-04-01T19:45:34;2.83;;;2.72;;
21589;SDS011;10957;50.968;6.828;2023-04-01T19:50:52;2.70;;;2.60;;
21589;SDS011;10957;50.968;6.828;2023-04-01T19:56:05;2.97;;;2.88;;
21589;SDS011;10957;50.968;6.828;2023-04-01T20:01:16;3.40;;;3.30;;
21589;SDS011;10957;50.968;6.828;2023-04-01T20:22:04;2.80;;;2.70;;
21589;SDS011;10957;50.968;6.828;2023-04-01T20:37:37;2.83;;;2.72;;
21589;SDS011;10957;50.968;6.828;2023-04-01T20:53:32;2.83;;;2.72;;
21589;SDS011;10957;50.968;6.828;2023-04-01T21:30:32;2.83;;;2.72;;
21589;SDS011;10957;50.968;6.828;2023-04-01T21:41:11;2.80;;;2.70;;
21589;SDS011;10957;50.968;6.828;2023-04-01T21:46:48;2.85;;;2.75;;
21589;SDS011;10957;50.968;6.828;2023-04-01T22:18:37;3.33;;;3.22;;
21589;SDS011;10957;50.968;6.828;2023-04-01T22:29:03;3.28;;;3.08;;
21589;SDS011;10957;50.968;6.828;2023-04-01T22:34:13;3.05;;;2.95;;
21589;SDS011;10957;50.968;6.828;2023-04-01T22:39:32;2.90;;;2.80;;
21589;SDS011;10957;50.968;6.828;2023-04-01T22:55:24;2.80;;;2.70;;
21589;SDS011;10957;50.968;6.828;2023-04-01T23:05:36;2.67;;;2.58;;
21589;SDS011;10957;50.968;6.828;2023-04-01T23:10:49;2.65;;;2.55;;
21589;SDS011;10957;50.968;6.828;2023-04-01T23:16:00;2.90;;;2.80;;
21589;SDS011;10957;50.968;6.828;2023-04-01T23:21:06;2.78;;;2.67;;
21589;SDS011;10957;50.968;6.828;2023-04-01T23:31:56;2.90;;;2.80;;
21589;SDS011;10957;50.968;6.828;2023-04-01T23:37:03;2.70;;;2.60;;
21589;SDS011;10957;50.968;6.828;2023-04-01T23:42:13;2.80;;;2.70;;
21589;SDS011;10957;50.968;6.828;2023-04-01T23:47:20;3.40;;;3.20;;
21589;SDS011;10957;50.968;6.828;2023-04-01T23:52:27;2.80;;;2.70;;
21589;SDS011;10957;50.968;6.828;2023-04-01T23:57:33;2.70;;;2.60;;
